createdAt,value
2022-08-25T00:01:59.208Z,0.90
2022-08-25T00:05:03.616Z,1.20
2022-08-25T00:08:09.056Z,1.20
2022-08-25T00:11:20.081Z,1.30
2022-08-25T00:14:28.009Z,1.00
2022-08-25T00:17:31.992Z,1.45
2022-08-25T00:20:35.707Z,1.47
2022-08-25T00:23:41.243Z,1.10
2022-08-25T00:26:48.987Z,1.23
2022-08-25T00:29:53.090Z,1.20
2022-08-25T00:32:57.550Z,0.95
2022-08-25T00:36:02.355Z,1.00
2022-08-25T00:39:08.566Z,1.20
2022-08-25T00:42:16.250Z,1.50
2022-08-25T00:45:20.325Z,1.00
2022-08-25T00:48:26.326Z,1.27
2022-08-25T00:51:36.189Z,0.97
2022-08-25T00:55:09.698Z,1.47
2022-08-25T00:58:20.088Z,1.10
2022-08-25T01:01:23.587Z,1.17
2022-08-25T01:04:28.260Z,1.50
2022-08-25T01:07:32.602Z,1.10
2022-08-25T01:10:39.181Z,1.30
2022-08-25T01:13:51.141Z,1.38
2022-08-25T01:16:55.386Z,1.35
2022-08-25T01:19:59.367Z,1.80
2022-08-25T01:23:02.806Z,1.60
2022-08-25T01:26:12.266Z,1.37
2022-08-25T01:29:22.614Z,1.70
2022-08-25T01:32:26.804Z,1.40
2022-08-25T01:35:29.918Z,1.63
2022-08-25T01:38:33.944Z,1.67
2022-08-25T01:41:55.013Z,1.50
2022-08-25T01:44:58.857Z,1.80
2022-08-25T01:48:03.644Z,1.30
2022-08-25T01:51:08.072Z,1.02
2022-08-25T01:54:11.478Z,1.30
2022-08-25T02:01:33.210Z,1.10
2022-08-25T02:04:38.029Z,1.40
2022-08-25T02:07:43.355Z,1.73
2022-08-25T02:10:47.031Z,0.87
2022-08-25T02:13:50.588Z,1.00
2022-08-25T02:16:55.328Z,1.00
2022-08-25T02:19:59.357Z,1.38
2022-08-25T02:23:02.391Z,0.88
2022-08-25T02:26:08.059Z,0.90
2022-08-25T02:29:12.095Z,1.00
2022-08-25T02:32:16.267Z,1.02
2022-08-25T02:35:19.978Z,1.13
2022-08-25T02:38:24.081Z,0.60
2022-08-25T02:41:31.279Z,0.77
2022-08-25T02:44:35.165Z,1.30
2022-08-25T02:47:38.175Z,0.82
2022-08-25T02:50:42.181Z,1.08
2022-08-25T02:53:49.266Z,1.20
2022-08-25T02:56:52.474Z,1.10
2022-08-25T02:59:56.570Z,1.10
2022-08-25T03:03:00.069Z,0.88
2022-08-25T03:06:03.919Z,0.90
2022-08-25T03:09:08.303Z,0.90
2022-08-25T03:12:13.109Z,1.03
2022-08-25T03:15:18.117Z,1.00
2022-08-25T03:18:23.858Z,1.25
2022-08-25T03:21:29.908Z,1.13
2022-08-25T03:24:34.232Z,1.70
2022-08-25T03:27:38.080Z,1.20
2022-08-25T03:30:43.236Z,1.83
2022-08-25T03:33:47.110Z,2.47
2022-08-25T03:36:53.517Z,13.73
2022-08-25T03:39:57.472Z,7.32
2022-08-25T03:43:01.018Z,2.07
2022-08-25T03:46:04.812Z,1.00
2022-08-25T03:49:11.151Z,0.50
2022-08-25T03:52:14.138Z,1.10
2022-08-25T03:55:18.027Z,1.52
2022-08-25T03:58:21.729Z,0.93
2022-08-25T04:01:26.250Z,0.70
2022-08-25T04:04:30.014Z,1.02
2022-08-25T04:07:33.430Z,1.98
2022-08-25T04:10:38.827Z,1.00
2022-08-25T04:13:46.623Z,1.10
2022-08-25T04:16:50.904Z,0.50
2022-08-25T04:19:54.445Z,0.90
2022-08-25T04:23:01.766Z,0.90
2022-08-25T04:26:14.367Z,0.98
2022-08-25T04:29:23.664Z,0.67
2022-08-25T04:32:28.373Z,0.70
2022-08-25T04:35:32.213Z,0.70
2022-08-25T04:38:36.890Z,1.10
2022-08-25T04:41:40.760Z,1.65
2022-08-25T04:44:44.856Z,1.60
2022-08-25T04:47:51.767Z,1.20
2022-08-25T04:50:59.171Z,1.30
2022-08-25T04:54:08.616Z,1.00
2022-08-25T04:57:12.764Z,1.00
2022-08-25T05:00:17.209Z,0.77
2022-08-25T05:03:20.726Z,0.57
2022-08-25T05:06:24.297Z,1.60
2022-08-25T05:09:28.295Z,1.45
2022-08-25T05:12:33.015Z,0.50
2022-08-25T05:15:52.419Z,1.93
2022-08-25T05:18:57.167Z,0.60
2022-08-25T05:22:00.937Z,0.80
2022-08-25T05:25:04.884Z,0.63
2022-08-25T05:28:08.732Z,0.43
2022-08-25T05:31:14.899Z,0.80
2022-08-25T05:34:19.979Z,0.80
2022-08-25T05:37:23.833Z,0.85
2022-08-25T05:40:27.432Z,1.10
2022-08-25T05:43:31.946Z,1.42
2022-08-25T05:46:35.808Z,0.73
2022-08-25T05:49:38.910Z,0.93
2022-08-25T05:52:42.906Z,0.85
2022-08-25T05:55:46.597Z,0.73
2022-08-25T05:58:51.208Z,6.20
2022-08-25T06:02:13.417Z,0.93
2022-08-25T06:05:22.867Z,0.60
2022-08-25T06:08:30.957Z,5.63
2022-08-25T06:11:35.106Z,1.13
2022-08-25T06:14:39.008Z,0.95
2022-08-25T06:17:43.881Z,0.90
2022-08-25T06:20:47.575Z,1.13
2022-08-25T06:23:51.328Z,0.80
2022-08-25T06:26:57.499Z,0.77
2022-08-25T06:30:07.818Z,1.08
2022-08-25T06:33:12.190Z,0.53
2022-08-25T06:36:16.628Z,1.00
2022-08-25T06:39:21.461Z,1.02
2022-08-25T06:42:25.668Z,1.05
2022-08-25T06:45:28.905Z,0.70
2022-08-25T06:48:32.522Z,2.90
2022-08-25T06:51:37.096Z,1.00
2022-08-25T06:54:40.651Z,0.68
2022-08-25T06:57:44.507Z,0.90
2022-08-25T07:00:48.646Z,1.10
2022-08-25T07:03:55.487Z,1.30
2022-08-25T07:07:00.196Z,0.70
2022-08-25T07:10:05.542Z,0.60
2022-08-25T07:13:09.449Z,0.60
2022-08-25T07:16:15.518Z,1.00
2022-08-25T07:19:23.091Z,3.07
2022-08-25T07:22:26.901Z,0.93
2022-08-25T07:25:30.974Z,0.73
2022-08-25T07:28:34.756Z,0.98
2022-08-25T07:31:39.751Z,0.90
2022-08-25T07:35:01.342Z,1.10
2022-08-25T07:38:09.010Z,1.00
2022-08-25T07:41:13.904Z,0.70
2022-08-25T07:44:18.635Z,1.02
2022-08-25T07:47:23.079Z,1.00
2022-08-25T07:50:27.167Z,1.00
2022-08-25T07:53:31.487Z,0.90
2022-08-25T07:56:35.023Z,0.80
2022-08-25T07:59:43.861Z,0.70
2022-08-25T08:02:48.014Z,1.10
2022-08-25T08:05:52.306Z,1.03
2022-08-25T08:08:58.937Z,1.03
2022-08-25T08:12:02.894Z,0.90
2022-08-25T08:15:10.112Z,0.88
2022-08-25T08:18:14.950Z,0.98
2022-08-25T08:21:20.552Z,1.20
2022-08-25T08:24:40.848Z,1.10
2022-08-25T08:27:47.864Z,0.60
2022-08-25T08:30:53.588Z,1.05
2022-08-25T08:33:58.613Z,0.90
2022-08-25T08:37:03.373Z,1.20
2022-08-25T08:40:08.676Z,0.90
2022-08-25T08:43:19.059Z,1.20
2022-08-25T08:46:26.055Z,1.60
2022-08-25T08:49:48.315Z,0.95
2022-08-25T08:53:03.740Z,1.00
2022-08-25T08:56:21.294Z,1.10
2022-08-25T08:59:29.957Z,0.95
2022-08-25T09:02:50.539Z,1.20
2022-08-25T09:06:01.287Z,1.50
2022-08-25T09:09:07.890Z,1.17
2022-08-25T09:12:36.614Z,1.00
2022-08-25T09:16:34.922Z,10.85
2022-08-25T09:19:47.795Z,2.10
2022-08-25T09:23:28.904Z,0.80
2022-08-25T09:26:49.555Z,0.90
2022-08-25T09:30:19.909Z,1.10
2022-08-25T09:33:26.249Z,2.05
2022-08-25T09:36:37.249Z,1.80
2022-08-25T09:39:42.618Z,1.95
2022-08-25T09:42:49.742Z,1.47
2022-08-25T09:46:28.431Z,2.03
2022-08-25T09:49:34.862Z,1.00
2022-08-25T09:52:41.453Z,1.00
2022-08-25T09:56:00.186Z,0.90
2022-08-25T09:59:34.267Z,1.00
2022-08-25T10:02:39.102Z,0.90
2022-08-25T10:06:00.775Z,0.80
2022-08-25T10:09:08.130Z,0.73
2022-08-25T10:12:21.906Z,0.82
2022-08-25T10:15:39.275Z,1.00
2022-08-25T10:18:42.473Z,1.37
2022-08-25T10:21:46.534Z,0.93
2022-08-25T10:24:51.367Z,2.35
2022-08-25T10:28:00.787Z,1.40
2022-08-25T10:31:42.099Z,1.10
2022-08-25T10:34:57.138Z,1.00
2022-08-25T10:38:38.894Z,0.82
2022-08-25T10:42:14.290Z,0.88
2022-08-25T10:45:41.149Z,1.55
2022-08-25T10:48:50.666Z,1.00
2022-08-25T10:52:11.613Z,1.00
2022-08-25T10:55:48.123Z,1.17
2022-08-25T10:59:17.884Z,1.00
2022-08-25T11:02:46.238Z,1.27
2022-08-25T11:06:00.252Z,1.47
2022-08-25T11:09:09.279Z,1.60
2022-08-25T11:12:30.740Z,1.60
2022-08-25T11:16:13.649Z,1.38
2022-08-25T11:19:33.788Z,1.42
2022-08-25T11:22:44.696Z,3.10
2022-08-25T11:26:02.322Z,3.60
2022-08-25T11:29:13.595Z,4.10
2022-08-25T11:32:21.491Z,1.40
2022-08-25T11:35:40.715Z,1.92
2022-08-25T11:39:07.148Z,2.33
2022-08-25T11:42:36.008Z,1.70
2022-08-25T11:46:16.992Z,1.30
2022-08-25T11:49:27.151Z,1.38
2022-08-25T11:52:39.614Z,1.27
2022-08-25T11:55:44.679Z,1.40
2022-08-25T11:58:52.887Z,2.70
2022-08-25T12:01:57.075Z,3.03
2022-08-25T12:05:01.634Z,2.00
2022-08-25T12:08:25.596Z,1.35
2022-08-25T12:11:52.247Z,1.10
2022-08-25T12:14:56.055Z,1.90
2022-08-25T12:18:13.730Z,1.45
2022-08-25T12:21:31.200Z,1.13
2022-08-25T12:24:47.619Z,1.55
2022-08-25T12:28:09.170Z,1.80
2022-08-25T12:31:24.434Z,1.93
2022-08-25T12:35:07.146Z,2.17
2022-08-25T12:38:30.125Z,2.90
2022-08-25T12:41:33.712Z,2.50
2022-08-25T12:44:42.412Z,3.07
2022-08-25T12:47:48.147Z,4.57
2022-08-25T12:51:09.691Z,8.88
2022-08-25T12:54:26.007Z,8.43
2022-08-25T12:57:44.630Z,13.18
2022-08-25T13:01:35.349Z,9.50
2022-08-25T13:04:58.622Z,7.13
2022-08-25T13:08:36.953Z,5.63
2022-08-25T13:11:48.050Z,5.00
2022-08-25T13:14:57.612Z,3.63
2022-08-25T13:18:26.881Z,2.87
2022-08-25T13:21:42.500Z,3.27
2022-08-25T13:24:50.840Z,2.30
2022-08-25T13:28:05.184Z,2.80
2022-08-25T13:31:17.461Z,3.10
2022-08-25T13:34:34.527Z,2.90
2022-08-25T13:37:39.133Z,3.23
2022-08-25T13:40:43.434Z,3.58
2022-08-25T13:43:48.781Z,3.90
2022-08-25T13:47:14.330Z,4.00
2022-08-25T13:50:26.989Z,3.23
2022-08-25T13:53:31.749Z,3.30
2022-08-25T13:56:41.843Z,2.90
2022-08-25T13:59:51.767Z,3.13
2022-08-25T14:02:56.954Z,2.95
2022-08-25T14:06:15.738Z,3.33
2022-08-25T14:09:27.975Z,2.80
2022-08-25T14:12:46.965Z,3.05
2022-08-25T14:15:52.349Z,2.60
2022-08-25T14:19:02.447Z,2.88
2022-08-25T14:22:06.960Z,2.43
2022-08-25T14:25:10.603Z,2.73
2022-08-25T14:28:18.889Z,2.80
2022-08-25T14:31:30.458Z,2.67
2022-08-25T14:34:37.898Z,4.10
2022-08-25T14:37:44.978Z,2.63
2022-08-25T14:40:49.170Z,2.30
2022-08-25T14:43:54.473Z,2.33
2022-08-25T14:47:00.278Z,2.80
2022-08-25T14:50:04.374Z,2.22
2022-08-25T14:53:12.640Z,2.40
2022-08-25T14:56:16.190Z,2.17
2022-08-25T14:59:20.588Z,2.17
2022-08-25T15:02:29.514Z,1.80
2022-08-25T15:05:34.134Z,1.83
2022-08-25T15:08:56.474Z,1.90
2022-08-25T15:12:00.628Z,2.00
2022-08-25T15:15:04.920Z,2.65
2022-08-25T15:18:09.598Z,2.40
2022-08-25T15:21:13.612Z,2.38
2022-08-25T15:24:20.470Z,2.10
2022-08-25T15:27:24.293Z,1.80
2022-08-25T15:30:35.584Z,1.80
2022-08-25T15:33:43.069Z,1.73
2022-08-25T15:36:47.626Z,1.63
2022-08-25T15:39:51.153Z,1.73
2022-08-25T15:42:56.147Z,1.60
2022-08-25T15:45:59.902Z,1.30
2022-08-25T15:49:03.730Z,1.20
2022-08-25T15:52:07.841Z,1.15
2022-08-25T15:55:12.207Z,1.00
2022-08-25T15:58:16.675Z,1.60
2022-08-25T16:01:26.973Z,1.38
2022-08-25T16:04:31.818Z,1.30
2022-08-25T16:07:35.908Z,1.30
2022-08-25T16:10:42.623Z,1.20
2022-08-25T16:13:48.497Z,1.33
2022-08-25T16:16:53.034Z,1.75
2022-08-25T16:19:56.807Z,1.77
2022-08-25T16:23:04.009Z,1.83
2022-08-25T16:26:10.147Z,1.70
2022-08-25T16:29:17.741Z,2.07
2022-08-25T16:32:22.040Z,2.22
2022-08-25T16:35:25.744Z,1.63
2022-08-25T16:38:29.106Z,1.60
2022-08-25T16:41:36.143Z,1.63
2022-08-25T16:44:40.839Z,1.50
2022-08-25T16:47:44.746Z,1.50
2022-08-25T16:50:48.492Z,1.42
2022-08-25T16:54:10.005Z,1.52
2022-08-25T16:57:14.309Z,1.17
2022-08-25T17:00:22.907Z,1.87
2022-08-25T17:03:29.051Z,1.60
2022-08-25T17:06:37.684Z,1.33
2022-08-25T17:09:41.026Z,1.30
2022-08-25T17:12:45.137Z,1.00
2022-08-25T17:15:52.354Z,1.30
2022-08-25T17:18:59.090Z,1.23
2022-08-25T17:22:02.618Z,1.48
2022-08-25T17:25:07.875Z,1.73
2022-08-25T17:28:12.968Z,1.50
2022-08-25T17:31:17.069Z,1.43
2022-08-25T17:34:23.196Z,1.70
2022-08-25T17:37:27.484Z,1.90
2022-08-25T17:40:31.336Z,1.45
2022-08-25T17:43:38.550Z,1.57
2022-08-25T17:46:47.460Z,1.37
2022-08-25T17:49:51.595Z,1.20
2022-08-25T17:52:55.689Z,1.35
2022-08-25T17:56:05.756Z,2.40
2022-08-25T17:59:10.068Z,1.47
2022-08-25T18:02:14.065Z,1.63
2022-08-25T18:05:18.831Z,1.02
2022-08-25T18:08:29.909Z,1.30
2022-08-25T18:11:39.176Z,1.15
2022-08-25T18:14:42.823Z,1.17
2022-08-25T18:17:50.471Z,0.80
2022-08-25T18:20:53.800Z,0.82
2022-08-25T18:23:57.713Z,0.90
2022-08-25T18:27:01.566Z,0.93
2022-08-25T18:30:07.310Z,1.00
2022-08-25T18:33:12.104Z,1.30
2022-08-25T18:36:15.829Z,0.90
2022-08-25T18:39:37.682Z,1.05
2022-08-25T18:42:40.751Z,1.13
2022-08-25T18:45:50.807Z,1.20
2022-08-25T18:48:56.170Z,1.33
2022-08-25T18:52:00.226Z,1.10
2022-08-25T18:55:03.780Z,0.75
2022-08-25T18:58:09.046Z,0.90
2022-08-25T19:01:16.434Z,1.20
2022-08-25T19:04:20.076Z,1.10
2022-08-25T19:07:26.101Z,0.95
2022-08-25T19:10:31.122Z,1.05
2022-08-25T19:13:34.199Z,0.88
2022-08-25T19:16:40.753Z,1.10
2022-08-25T19:19:45.224Z,0.80
2022-08-25T19:22:50.245Z,0.70
2022-08-25T19:25:53.897Z,0.73
2022-08-25T19:28:59.791Z,1.05
2022-08-25T19:32:04.777Z,0.97
2022-08-25T19:35:13.438Z,1.07
2022-08-25T19:38:34.205Z,0.80
2022-08-25T19:41:39.462Z,0.80
2022-08-25T19:44:44.528Z,0.98
2022-08-25T19:47:48.394Z,0.80
2022-08-25T19:50:56.162Z,0.80
2022-08-25T19:54:02.790Z,0.85
2022-08-25T19:57:11.077Z,0.60
2022-08-25T20:00:19.757Z,0.65
2022-08-25T20:03:22.876Z,0.60
2022-08-25T20:06:27.753Z,0.90
2022-08-25T20:09:39.136Z,0.88
2022-08-25T20:12:48.240Z,0.70
2022-08-25T20:15:51.261Z,0.70
2022-08-25T20:19:01.775Z,0.83
2022-08-25T20:22:05.848Z,0.70
2022-08-25T20:25:24.454Z,0.88
2022-08-25T20:28:28.665Z,0.60
2022-08-25T20:31:33.174Z,0.90
2022-08-25T20:34:37.007Z,0.70
2022-08-25T20:37:43.272Z,0.70
2022-08-25T20:40:46.887Z,1.00
2022-08-25T20:43:52.223Z,0.70
2022-08-25T20:46:57.880Z,0.75
2022-08-25T20:50:06.023Z,0.80
2022-08-25T20:53:10.328Z,1.00
2022-08-25T20:56:19.425Z,0.82
2022-08-25T20:59:27.336Z,1.00
2022-08-25T21:02:31.625Z,0.95
2022-08-25T21:05:39.245Z,1.60
2022-08-25T21:08:46.747Z,1.80
2022-08-25T21:11:54.451Z,1.23
2022-08-25T21:14:57.463Z,0.73
2022-08-25T21:18:01.002Z,0.80
2022-08-25T21:21:14.542Z,0.80
2022-08-25T21:24:20.255Z,1.13
2022-08-25T21:27:24.113Z,1.13
2022-08-25T21:30:29.198Z,0.63
2022-08-25T21:33:32.197Z,1.00
2022-08-25T21:36:35.322Z,0.50
2022-08-25T21:39:38.861Z,1.03
2022-08-25T21:42:44.338Z,1.17
2022-08-25T21:45:48.039Z,1.02
2022-08-25T21:48:52.441Z,1.10
2022-08-25T21:52:00.791Z,0.90
2022-08-25T21:55:05.142Z,1.67
2022-08-25T21:58:09.082Z,1.10
2022-08-25T22:01:17.058Z,1.42
2022-08-25T22:04:22.889Z,7.47
2022-08-25T22:07:26.796Z,2.03
2022-08-25T22:10:30.817Z,1.00
2022-08-25T22:13:37.187Z,1.08
2022-08-25T22:16:45.594Z,1.10
2022-08-25T22:19:49.524Z,1.10
2022-08-25T22:22:57.283Z,1.10
2022-08-25T22:26:03.926Z,1.10
2022-08-25T22:29:08.542Z,1.10
2022-08-25T22:32:13.623Z,0.90
2022-08-25T22:35:17.671Z,1.15
2022-08-25T22:38:23.034Z,1.27
2022-08-25T22:41:29.574Z,0.90
2022-08-25T22:44:32.978Z,0.77
2022-08-25T22:47:36.922Z,2.00
2022-08-25T22:50:40.773Z,0.80
2022-08-25T22:53:45.917Z,1.77
2022-08-25T22:56:49.940Z,0.80
2022-08-25T22:59:57.099Z,0.80
2022-08-25T23:03:01.342Z,1.15
2022-08-25T23:06:05.159Z,0.90
2022-08-25T23:09:11.268Z,1.73
2022-08-25T23:12:15.220Z,1.50
2022-08-25T23:15:18.586Z,1.88
2022-08-25T23:18:22.022Z,1.60
2022-08-25T23:21:44.952Z,1.52
2022-08-25T23:24:52.952Z,1.63
2022-08-25T23:27:56.581Z,1.40
2022-08-25T23:31:00.574Z,2.08
2022-08-25T23:34:04.946Z,1.58
2022-08-25T23:37:11.061Z,1.33
2022-08-25T23:40:19.185Z,1.50
2022-08-25T23:43:23.589Z,1.70
2022-08-25T23:46:33.088Z,1.30
2022-08-25T23:49:36.784Z,1.52
2022-08-25T23:52:40.665Z,2.80
2022-08-25T23:55:53.153Z,1.60
2022-08-25T23:58:58.017Z,2.40
